Decoded Metar for LEZL (SEVILLA in SPAIN) (IATA:SVQ) | Meteo·Mobile Aviation Weather
aviador You're here:

LEZL Decoded Metar

SEVILLA in SPAIN
Report Time2019-02-20 19:00:00
UTC Time2019-02-20 19:12:41
Flight Rules vfr VFR
Wind100° at 07 kt
W.Decomp.*RWY 09: 6.8 kt HW 1.5 kt RCW
W.Rank100° ranks 25
Current wind is above 100° avg. (5.0)
Visibility9999 m
Phenomena:N/A
Clouds:N/A
Expected CloudBase > 4,000 ft AGL from Temp-Dew spread
CeilingNone
Temp16°C (ISA +1)
Dew Point06°C (52% RH)
AAT12.6°C
QNH1022 hPa
Density Alt69 ft
Elevation102 ft
Report Wrong Elevation
Raw Report
LEZL 201900Z 10007KT CAVOK 16/06 Q1022 NOSIG=

Extra information for LEZL:More info

Metar Taf Metar & Taf Last 4 Metars F.Rules Stats Wind Profile Meteogram Temp Stats Airport Information Weather charts Add Link Nearby VenuesMetar ALERT Operation Metar Decoded Social comments